Aviation Digital Data Service (ADDS)

Output produced by TAFs form (0718 UTC 19 October 2017)
found at http://www.aviationweather.gov/adds/tafs/
 
KAHN 190651Z AUTO 06004KT 10SM CLR 08/07 A3028 RMK AO2 SLP254 T00780067
KAHN 190523Z 1906/2006 05003KT P6SM SKC